sensor_id;sensor_type;location;lat;lon;timestamp;P1;durP1;ratioP1;P2;durP2;ratioP2
33593;SDS011;19920;52.242;20.940;2024-01-15T00:02:17;13.93;;;7.60;;
33593;SDS011;19920;52.242;20.940;2024-01-15T00:04:43;12.98;;;8.20;;
33593;SDS011;19920;52.242;20.940;2024-01-15T00:07:09;13.65;;;8.05;;
33593;SDS011;19920;52.242;20.940;2024-01-15T00:09:35;12.35;;;7.70;;
33593;SDS011;19920;52.242;20.940;2024-01-15T00:12:00;13.50;;;8.50;;
33593;SDS011;19920;52.242;20.940;2024-01-15T00:14:26;14.15;;;8.43;;
33593;SDS011;19920;52.242;20.940;2024-01-15T00:16:52;16.73;;;9.18;;
33593;SDS011;19920;52.242;20.940;2024-01-15T00:19:20;16.48;;;8.77;;
33593;SDS011;19920;52.242;20.940;2024-01-15T00:21:46;13.57;;;8.20;;
33593;SDS011;19920;52.242;20.940;2024-01-15T00:24:12;16.30;;;9.13;;
33593;SDS011;19920;52.242;20.940;2024-01-15T00:26:38;15.73;;;8.88;;
33593;SDS011;19920;52.242;20.940;2024-01-15T00:29:04;13.88;;;9.10;;
33593;SDS011;19920;52.242;20.940;2024-01-15T00:31:31;13.00;;;8.43;;
33593;SDS011;19920;52.242;20.940;2024-01-15T00:33:57;12.32;;;8.02;;
33593;SDS011;19920;52.242;20.940;2024-01-15T00:36:22;13.85;;;7.90;;
33593;SDS011;19920;52.242;20.940;2024-01-15T00:38:48;14.30;;;8.48;;
33593;SDS011;19920;52.242;20.940;2024-01-15T00:41:14;13.38;;;8.55;;
33593;SDS011;19920;52.242;20.940;2024-01-15T00:43:40;12.98;;;7.82;;
33593;SDS011;19920;52.242;20.940;2024-01-15T00:46:05;13.93;;;8.38;;
33593;SDS011;19920;52.242;20.940;2024-01-15T00:48:31;13.80;;;8.85;;
33593;SDS011;19920;52.242;20.940;2024-01-15T00:50:57;12.82;;;8.05;;
33593;SDS011;19920;52.242;20.940;2024-01-15T00:53:23;14.93;;;8.20;;
33593;SDS011;19920;52.242;20.940;2024-01-15T00:55:48;12.15;;;8.13;;
33593;SDS011;19920;52.242;20.940;2024-01-15T00:58:14;13.50;;;8.45;;
33593;SDS011;19920;52.242;20.940;2024-01-15T01:00:40;12.63;;;8.40;;
33593;SDS011;19920;52.242;20.940;2024-01-15T01:03:06;13.07;;;8.70;;
33593;SDS011;19920;52.242;20.940;2024-01-15T01:05:33;14.77;;;9.27;;
33593;SDS011;19920;52.242;20.940;2024-01-15T01:07:59;14.27;;;8.77;;
33593;SDS011;19920;52.242;20.940;2024-01-15T01:10:24;14.65;;;9.40;;
33593;SDS011;19920;52.242;20.940;2024-01-15T01:12:50;14.45;;;9.20;;
33593;SDS011;19920;52.242;20.940;2024-01-15T01:15:16;17.17;;;9.18;;
33593;SDS011;19920;52.242;20.940;2024-01-15T01:17:41;14.45;;;9.55;;
33593;SDS011;19920;52.242;20.940;2024-01-15T01:20:07;16.73;;;9.43;;
33593;SDS011;19920;52.242;20.940;2024-01-15T01:22:34;15.70;;;9.48;;
33593;SDS011;19920;52.242;20.940;2024-01-15T01:25:00;15.00;;;9.35;;
33593;SDS011;19920;52.242;20.940;2024-01-15T01:27:26;16.05;;;10.13;;
33593;SDS011;19920;52.242;20.940;2024-01-15T01:29:51;15.18;;;9.68;;
33593;SDS011;19920;52.242;20.940;2024-01-15T01:32:17;15.88;;;9.57;;
33593;SDS011;19920;52.242;20.940;2024-01-15T01:34:43;15.10;;;10.25;;
33593;SDS011;19920;52.242;20.940;2024-01-15T01:37:09;15.57;;;9.73;;
33593;SDS011;19920;52.242;20.940;2024-01-15T01:39:38;15.77;;;9.90;;
33593;SDS011;19920;52.242;20.940;2024-01-15T01:42:04;15.77;;;9.90;;
33593;SDS011;19920;52.242;20.940;2024-01-15T01:44:30;14.05;;;9.80;;
33593;SDS011;19920;52.242;20.940;2024-01-15T01:46:55;16.38;;;9.95;;
33593;SDS011;19920;52.242;20.940;2024-01-15T01:49:22;14.38;;;9.63;;
33593;SDS011;19920;52.242;20.940;2024-01-15T01:51:48;16.65;;;10.13;;
33593;SDS011;19920;52.242;20.940;2024-01-15T01:54:14;16.27;;;10.52;;
33593;SDS011;19920;52.242;20.940;2024-01-15T01:56:43;18.60;;;10.40;;
33593;SDS011;19920;52.242;20.940;2024-01-15T01:59:09;17.10;;;10.52;;
33593;SDS011;19920;52.242;20.940;2024-01-15T02:01:36;17.55;;;10.45;;
33593;SDS011;19920;52.242;20.940;2024-01-15T02:04:01;17.40;;;11.25;;
33593;SDS011;19920;52.242;20.940;2024-01-15T02:06:28;16.80;;;11.00;;
33593;SDS011;19920;52.242;20.940;2024-01-15T02:08:54;17.70;;;10.50;;
33593;SDS011;19920;52.242;20.940;2024-01-15T02:11:20;17.45;;;10.43;;
33593;SDS011;19920;52.242;20.940;2024-01-15T02:13:46;18.42;;;11.25;;
33593;SDS011;19920;52.242;20.940;2024-01-15T02:16:12;18.08;;;10.93;;
33593;SDS011;19920;52.242;20.940;2024-01-15T02:21:08;17.33;;;10.88;;
33593;SDS011;19920;52.242;20.940;2024-01-15T02:23:34;17.38;;;11.18;;
33593;SDS011;19920;52.242;20.940;2024-01-15T02:25:59;17.10;;;10.75;;
33593;SDS011;19920;52.242;20.940;2024-01-15T02:28:26;16.38;;;11.02;;
33593;SDS011;19920;52.242;20.940;2024-01-15T02:30:51;16.17;;;10.45;;
33593;SDS011;19920;52.242;20.940;2024-01-15T02:33:17;17.38;;;9.82;;
33593;SDS011;19920;52.242;20.940;2024-01-15T02:35:42;17.08;;;10.30;;
33593;SDS011;19920;52.242;20.940;2024-01-15T02:38:08;16.38;;;10.25;;
33593;SDS011;19920;52.242;20.940;2024-01-15T02:40:34;14.70;;;10.48;;
33593;SDS011;19920;52.242;20.940;2024-01-15T02:43:00;17.33;;;9.82;;
33593;SDS011;19920;52.242;20.940;2024-01-15T02:45:26;17.50;;;11.18;;
33593;SDS011;19920;52.242;20.940;2024-01-15T02:47:52;16.65;;;11.13;;
33593;SDS011;19920;52.242;20.940;2024-01-15T02:50:18;18.20;;;11.18;;
33593;SDS011;19920;52.242;20.940;2024-01-15T02:52:43;14.43;;;9.75;;
33593;SDS011;19920;52.242;20.940;2024-01-15T02:55:09;20.10;;;11.15;;
33593;SDS011;19920;52.242;20.940;2024-01-15T02:57:35;17.13;;;10.45;;
33593;SDS011;19920;52.242;20.940;2024-01-15T03:00:00;20.02;;;10.82;;
33593;SDS011;19920;52.242;20.940;2024-01-15T03:02:26;17.33;;;10.45;;
33593;SDS011;19920;52.242;20.940;2024-01-15T03:04:51;17.52;;;10.82;;
33593;SDS011;19920;52.242;20.940;2024-01-15T03:07:17;18.45;;;10.88;;
33593;SDS011;19920;52.242;20.940;2024-01-15T03:09:43;16.20;;;10.82;;
33593;SDS011;19920;52.242;20.940;2024-01-15T03:12:08;18.17;;;10.32;;
33593;SDS011;19920;52.242;20.940;2024-01-15T03:14:35;16.67;;;10.85;;
33593;SDS011;19920;52.242;20.940;2024-01-15T03:17:00;16.92;;;10.35;;
33593;SDS011;19920;52.242;20.940;2024-01-15T03:19:26;19.65;;;10.57;;
33593;SDS011;19920;52.242;20.940;2024-01-15T03:21:52;18.80;;;10.68;;
33593;SDS011;19920;52.242;20.940;2024-01-15T03:24:18;18.15;;;11.32;;
33593;SDS011;19920;52.242;20.940;2024-01-15T03:26:43;17.25;;;11.45;;
33593;SDS011;19920;52.242;20.940;2024-01-15T03:29:09;17.90;;;11.10;;
33593;SDS011;19920;52.242;20.940;2024-01-15T03:31:34;17.88;;;10.93;;
33593;SDS011;19920;52.242;20.940;2024-01-15T03:34:00;19.40;;;11.70;;
33593;SDS011;19920;52.242;20.940;2024-01-15T03:36:26;18.67;;;10.90;;
33593;SDS011;19920;52.242;20.940;2024-01-15T03:38:51;17.10;;;11.23;;
33593;SDS011;19920;52.242;20.940;2024-01-15T03:41:17;19.92;;;11.48;;
33593;SDS011;19920;52.242;20.940;2024-01-15T03:43:42;17.38;;;11.00;;
33593;SDS011;19920;52.242;20.940;2024-01-15T03:46:08;17.75;;;11.00;;
33593;SDS011;19920;52.242;20.940;2024-01-15T03:48:33;19.15;;;10.57;;
33593;SDS011;19920;52.242;20.940;2024-01-15T03:50:59;16.60;;;10.07;;
33593;SDS011;19920;52.242;20.940;2024-01-15T03:53:25;15.98;;;10.18;;
33593;SDS011;19920;52.242;20.940;2024-01-15T03:55:50;16.90;;;10.60;;
33593;SDS011;19920;52.242;20.940;2024-01-15T03:58:17;15.98;;;10.70;;
33593;SDS011;19920;52.242;20.940;2024-01-15T04:00:43;17.35;;;10.20;;
33593;SDS011;19920;52.242;20.940;2024-01-15T04:03:08;15.07;;;9.70;;
33593;SDS011;19920;52.242;20.940;2024-01-15T04:05:34;17.98;;;10.45;;
33593;SDS011;19920;52.242;20.940;2024-01-15T04:08:00;17.08;;;10.65;;
33593;SDS011;19920;52.242;20.940;2024-01-15T04:10:25;16.08;;;10.13;;
33593;SDS011;19920;52.242;20.940;2024-01-15T04:12:51;15.80;;;10.15;;
33593;SDS011;19920;52.242;20.940;2024-01-15T04:15:17;18.75;;;10.35;;
33593;SDS011;19920;52.242;20.940;2024-01-15T04:17:42;18.02;;;10.55;;
33593;SDS011;19920;52.242;20.940;2024-01-15T04:20:09;18.35;;;10.48;;
33593;SDS011;19920;52.242;20.940;2024-01-15T04:22:35;17.73;;;9.57;;
33593;SDS011;19920;52.242;20.940;2024-01-15T04:25:01;15.10;;;9.20;;
33593;SDS011;19920;52.242;20.940;2024-01-15T04:27:27;16.08;;;9.75;;
33593;SDS011;19920;52.242;20.940;2024-01-15T04:29:53;17.17;;;9.45;;
33593;SDS011;19920;52.242;20.940;2024-01-15T04:32:18;14.45;;;9.52;;
33593;SDS011;19920;52.242;20.940;2024-01-15T04:34:44;15.27;;;9.35;;
33593;SDS011;19920;52.242;20.940;2024-01-15T04:37:10;13.90;;;9.27;;
33593;SDS011;19920;52.242;20.940;2024-01-15T04:39:35;15.15;;;8.90;;
33593;SDS011;19920;52.242;20.940;2024-01-15T04:42:01;15.20;;;9.00;;
33593;SDS011;19920;52.242;20.940;2024-01-15T04:44:27;14.10;;;8.98;;
33593;SDS011;19920;52.242;20.940;2024-01-15T04:46:53;16.63;;;9.20;;
33593;SDS011;19920;52.242;20.940;2024-01-15T04:49:18;13.82;;;8.65;;
33593;SDS011;19920;52.242;20.940;2024-01-15T04:51:44;14.98;;;8.70;;
33593;SDS011;19920;52.242;20.940;2024-01-15T04:54:09;11.73;;;7.93;;
33593;SDS011;19920;52.242;20.940;2024-01-15T04:56:36;15.18;;;9.00;;
33593;SDS011;19920;52.242;20.940;2024-01-15T04:59:02;16.35;;;9.57;;
33593;SDS011;19920;52.242;20.940;2024-01-15T05:01:30;13.32;;;8.10;;
33593;SDS011;19920;52.242;20.940;2024-01-15T05:03:57;15.57;;;8.68;;
33593;SDS011;19920;52.242;20.940;2024-01-15T05:06:22;12.95;;;8.07;;
33593;SDS011;19920;52.242;20.940;2024-01-15T05:08:48;13.80;;;9.30;;
33593;SDS011;19920;52.242;20.940;2024-01-15T05:11:14;17.63;;;9.05;;
33593;SDS011;19920;52.242;20.940;2024-01-15T05:13:39;14.73;;;8.93;;
33593;SDS011;19920;52.242;20.940;2024-01-15T05:16:05;14.75;;;8.77;;
33593;SDS011;19920;52.242;20.940;2024-01-15T05:18:31;12.65;;;8.52;;
33593;SDS011;19920;52.242;20.940;2024-01-15T05:20:57;13.77;;;8.40;;
33593;SDS011;19920;52.242;20.940;2024-01-15T05:23:22;14.70;;;8.63;;
33593;SDS011;19920;52.242;20.940;2024-01-15T05:25:48;16.15;;;9.30;;
33593;SDS011;19920;52.242;20.940;2024-01-15T05:28:14;15.40;;;9.02;;
33593;SDS011;19920;52.242;20.940;2024-01-15T05:30:39;14.93;;;8.85;;
33593;SDS011;19920;52.242;20.940;2024-01-15T05:33:05;15.05;;;9.30;;
33593;SDS011;19920;52.242;20.940;2024-01-15T05:35:32;13.85;;;8.88;;
33593;SDS011;19920;52.242;20.940;2024-01-15T05:37:58;12.93;;;8.27;;
33593;SDS011;19920;52.242;20.940;2024-01-15T05:40:23;13.88;;;8.68;;
33593;SDS011;19920;52.242;20.940;2024-01-15T05:42:49;13.05;;;9.05;;
33593;SDS011;19920;52.242;20.940;2024-01-15T05:45:15;15.85;;;9.05;;
33593;SDS011;19920;52.242;20.940;2024-01-15T05:47:40;14.90;;;9.07;;
33593;SDS011;19920;52.242;20.940;2024-01-15T05:50:06;16.48;;;9.68;;
33593;SDS011;19920;52.242;20.940;2024-01-15T05:52:32;14.35;;;9.32;;
33593;SDS011;19920;52.242;20.940;2024-01-15T05:54:57;14.15;;;9.40;;
33593;SDS011;19920;52.242;20.940;2024-01-15T05:57:23;13.80;;;8.95;;
33593;SDS011;19920;52.242;20.940;2024-01-15T05:59:49;14.30;;;10.05;;
33593;SDS011;19920;52.242;20.940;2024-01-15T06:02:14;14.57;;;9.35;;
33593;SDS011;19920;52.242;20.940;2024-01-15T06:04:40;14.93;;;9.13;;
33593;SDS011;19920;52.242;20.940;2024-01-15T06:07:06;13.20;;;8.95;;
33593;SDS011;19920;52.242;20.940;2024-01-15T06:09:31;14.25;;;9.38;;
33593;SDS011;19920;52.242;20.940;2024-01-15T06:11:57;13.02;;;8.90;;
33593;SDS011;19920;52.242;20.940;2024-01-15T06:14:22;15.48;;;9.30;;
33593;SDS011;19920;52.242;20.940;2024-01-15T06:16:48;13.48;;;9.23;;
33593;SDS011;19920;52.242;20.940;2024-01-15T06:19:14;16.35;;;9.60;;
33593;SDS011;19920;52.242;20.940;2024-01-15T06:21:39;14.57;;;9.45;;
33593;SDS011;19920;52.242;20.940;2024-01-15T06:24:05;14.20;;;9.00;;
33593;SDS011;19920;52.242;20.940;2024-01-15T06:26:31;15.23;;;9.55;;
33593;SDS011;19920;52.242;20.940;2024-01-15T06:28:57;15.90;;;9.25;;
33593;SDS011;19920;52.242;20.940;2024-01-15T06:31:22;15.57;;;10.57;;
33593;SDS011;19920;52.242;20.940;2024-01-15T06:33:48;13.73;;;9.13;;
33593;SDS011;19920;52.242;20.940;2024-01-15T06:36:14;15.52;;;9.88;;
33593;SDS011;19920;52.242;20.940;2024-01-15T06:38:41;16.25;;;10.05;;
33593;SDS011;19920;52.242;20.940;2024-01-15T06:41:08;17.88;;;10.25;;
33593;SDS011;19920;52.242;20.940;2024-01-15T06:43:34;15.80;;;10.32;;
33593;SDS011;19920;52.242;20.940;2024-01-15T06:45:59;15.68;;;10.35;;
33593;SDS011;19920;52.242;20.940;2024-01-15T06:48:25;14.68;;;9.27;;
33593;SDS011;19920;52.242;20.940;2024-01-15T06:50:50;14.40;;;9.70;;
33593;SDS011;19920;52.242;20.940;2024-01-15T06:53:16;16.05;;;9.45;;
33593;SDS011;19920;52.242;20.940;2024-01-15T06:55:42;13.23;;;8.80;;
33593;SDS011;19920;52.242;20.940;2024-01-15T06:58:07;16.35;;;10.27;;
33593;SDS011;19920;52.242;20.940;2024-01-15T07:00:33;13.95;;;9.52;;
33593;SDS011;19920;52.242;20.940;2024-01-15T07:02:58;17.05;;;9.88;;
33593;SDS011;19920;52.242;20.940;2024-01-15T07:05:24;15.00;;;10.38;;
33593;SDS011;19920;52.242;20.940;2024-01-15T07:07:50;15.32;;;9.65;;
33593;SDS011;19920;52.242;20.940;2024-01-15T07:10:15;14.85;;;9.55;;
33593;SDS011;19920;52.242;20.940;2024-01-15T07:12:42;13.77;;;8.75;;
33593;SDS011;19920;52.242;20.940;2024-01-15T07:15:09;15.27;;;9.13;;
33593;SDS011;19920;52.242;20.940;2024-01-15T07:17:35;14.80;;;9.68;;
33593;SDS011;19920;52.242;20.940;2024-01-15T07:20:04;17.48;;;10.38;;
33593;SDS011;19920;52.242;20.940;2024-01-15T07:22:33;15.68;;;10.00;;
33593;SDS011;19920;52.242;20.940;2024-01-15T07:25:00;16.50;;;10.07;;
33593;SDS011;19920;52.242;20.940;2024-01-15T07:27:25;15.50;;;10.48;;
33593;SDS011;19920;52.242;20.940;2024-01-15T07:29:51;15.27;;;10.05;;
33593;SDS011;19920;52.242;20.940;2024-01-15T07:32:17;14.70;;;10.45;;
33593;SDS011;19920;52.242;20.940;2024-01-15T07:34:42;15.70;;;10.02;;
33593;SDS011;19920;52.242;20.940;2024-01-15T07:37:08;15.57;;;10.00;;
33593;SDS011;19920;52.242;20.940;2024-01-15T07:39:34;15.95;;;10.25;;
33593;SDS011;19920;52.242;20.940;2024-01-15T07:42:00;15.93;;;9.98;;
33593;SDS011;19920;52.242;20.940;2024-01-15T07:44:26;14.60;;;9.20;;
33593;SDS011;19920;52.242;20.940;2024-01-15T07:46:51;16.63;;;9.48;;
33593;SDS011;19920;52.242;20.940;2024-01-15T07:49:17;13.55;;;8.63;;
33593;SDS011;19920;52.242;20.940;2024-01-15T07:51:42;12.63;;;8.88;;
33593;SDS011;19920;52.242;20.940;2024-01-15T07:54:11;14.10;;;8.60;;
33593;SDS011;19920;52.242;20.940;2024-01-15T07:56:58;13.25;;;7.97;;
33593;SDS011;19920;52.242;20.940;2024-01-15T07:59:24;15.80;;;8.52;;
33593;SDS011;19920;52.242;20.940;2024-01-15T08:01:51;15.27;;;9.20;;
33593;SDS011;19920;52.242;20.940;2024-01-15T08:04:17;14.57;;;9.23;;
33593;SDS011;19920;52.242;20.940;2024-01-15T08:06:42;16.17;;;9.40;;
33593;SDS011;19920;52.242;20.940;2024-01-15T08:09:08;16.50;;;9.63;;
33593;SDS011;19920;52.242;20.940;2024-01-15T08:11:34;16.05;;;9.93;;
33593;SDS011;19920;52.242;20.940;2024-01-15T08:14:00;15.43;;;9.88;;
33593;SDS011;19920;52.242;20.940;2024-01-15T08:16:26;17.48;;;10.38;;
33593;SDS011;19920;52.242;20.940;2024-01-15T08:18:53;16.15;;;9.43;;
33593;SDS011;19920;52.242;20.940;2024-01-15T08:21:19;15.52;;;8.70;;
33593;SDS011;19920;52.242;20.940;2024-01-15T08:23:44;14.00;;;8.82;;
33593;SDS011;19920;52.242;20.940;2024-01-15T08:26:10;13.38;;;8.35;;
33593;SDS011;19920;52.242;20.940;2024-01-15T08:28:36;13.57;;;8.18;;
33593;SDS011;19920;52.242;20.940;2024-01-15T08:31:01;13.23;;;8.05;;
33593;SDS011;19920;52.242;20.940;2024-01-15T08:33:28;12.70;;;7.47;;
33593;SDS011;19920;52.242;20.940;2024-01-15T08:35:53;11.60;;;7.40;;
33593;SDS011;19920;52.242;20.940;2024-01-15T08:38:19;11.40;;;7.85;;
33593;SDS011;19920;52.242;20.940;2024-01-15T08:40:45;11.07;;;7.07;;
33593;SDS011;19920;52.242;20.940;2024-01-15T08:43:11;11.77;;;7.20;;
33593;SDS011;19920;52.242;20.940;2024-01-15T08:45:36;11.15;;;7.90;;
33593;SDS011;19920;52.242;20.940;2024-01-15T08:48:02;12.75;;;7.05;;
33593;SDS011;19920;52.242;20.940;2024-01-15T08:50:28;11.43;;;7.38;;
33593;SDS011;19920;52.242;20.940;2024-01-15T08:52:54;11.15;;;7.30;;
33593;SDS011;19920;52.242;20.940;2024-01-15T08:55:20;14.60;;;7.68;;
33593;SDS011;19920;52.242;20.940;2024-01-15T08:57:47;12.00;;;7.53;;
33593;SDS011;19920;52.242;20.940;2024-01-15T09:00:13;11.82;;;8.23;;
33593;SDS011;19920;52.242;20.940;2024-01-15T09:02:39;15.00;;;8.30;;
33593;SDS011;19920;52.242;20.940;2024-01-15T09:05:05;12.88;;;7.88;;
33593;SDS011;19920;52.242;20.940;2024-01-15T09:07:31;12.48;;;7.68;;
33593;SDS011;19920;52.242;20.940;2024-01-15T09:09:57;13.55;;;8.27;;
33593;SDS011;19920;52.242;20.940;2024-01-15T09:12:25;10.65;;;7.35;;
33593;SDS011;19920;52.242;20.940;2024-01-15T09:14:51;12.95;;;7.95;;
33593;SDS011;19920;52.242;20.940;2024-01-15T09:17:17;11.00;;;7.22;;
33593;SDS011;19920;52.242;20.940;2024-01-15T09:19:42;9.80;;;6.47;;
33593;SDS011;19920;52.242;20.940;2024-01-15T09:22:09;11.05;;;6.88;;
33593;SDS011;19920;52.242;20.940;2024-01-15T09:24:35;10.50;;;6.60;;
33593;SDS011;19920;52.242;20.940;2024-01-15T09:27:03;9.88;;;6.32;;
33593;SDS011;19920;52.242;20.940;2024-01-15T09:29:30;10.75;;;6.70;;
33593;SDS011;19920;52.242;20.940;2024-01-15T09:31:55;9.77;;;6.38;;
33593;SDS011;19920;52.242;20.940;2024-01-15T09:34:21;10.00;;;6.45;;
33593;SDS011;19920;52.242;20.940;2024-01-15T09:36:47;9.38;;;6.60;;
33593;SDS011;19920;52.242;20.940;2024-01-15T09:39:13;11.38;;;6.50;;
33593;SDS011;19920;52.242;20.940;2024-01-15T09:41:40;9.43;;;5.55;;
33593;SDS011;19920;52.242;20.940;2024-01-15T09:44:06;7.57;;;5.18;;
33593;SDS011;19920;52.242;20.940;2024-01-15T09:46:35;10.73;;;5.25;;
33593;SDS011;19920;52.242;20.940;2024-01-15T09:49:00;10.63;;;5.80;;
33593;SDS011;19920;52.242;20.940;2024-01-15T09:51:27;11.20;;;5.18;;
33593;SDS011;19920;52.242;20.940;2024-01-15T09:53:56;11.02;;;5.00;;
33593;SDS011;19920;52.242;20.940;2024-01-15T09:56:23;10.25;;;5.55;;
33593;SDS011;19920;52.242;20.940;2024-01-15T09:58:49;8.55;;;4.95;;
33593;SDS011;19920;52.242;20.940;2024-01-15T10:01:19;9.43;;;4.82;;
33593;SDS011;19920;52.242;20.940;2024-01-15T10:03:45;9.75;;;4.63;;
33593;SDS011;19920;52.242;20.940;2024-01-15T10:06:14;8.43;;;4.85;;
33593;SDS011;19920;52.242;20.940;2024-01-15T10:08:42;10.20;;;4.38;;
33593;SDS011;19920;52.242;20.940;2024-01-15T10:11:13;10.38;;;4.72;;
33593;SDS011;19920;52.242;20.940;2024-01-15T10:13:39;8.60;;;4.22;;
33593;SDS011;19920;52.242;20.940;2024-01-15T10:16:05;9.20;;;4.68;;
33593;SDS011;19920;52.242;20.940;2024-01-15T10:18:31;10.93;;;4.43;;
33593;SDS011;19920;52.242;20.940;2024-01-15T10:20:57;8.10;;;4.20;;
33593;SDS011;19920;52.242;20.940;2024-01-15T10:23:24;8.15;;;4.57;;
33593;SDS011;19920;52.242;20.940;2024-01-15T10:25:49;9.07;;;4.80;;
33593;SDS011;19920;52.242;20.940;2024-01-15T10:28:16;10.30;;;4.35;;
33593;SDS011;19920;52.242;20.940;2024-01-15T10:30:44;10.38;;;4.88;;
33593;SDS011;19920;52.242;20.940;2024-01-15T10:33:09;10.00;;;5.00;;
33593;SDS011;19920;52.242;20.940;2024-01-15T10:35:36;9.15;;;5.30;;
33593;SDS011;19920;52.242;20.940;2024-01-15T10:38:03;9.23;;;5.20;;
33593;SDS011;19920;52.242;20.940;2024-01-15T10:40:30;9.30;;;5.25;;
33593;SDS011;19920;52.242;20.940;2024-01-15T10:42:56;10.43;;;5.55;;
33593;SDS011;19920;52.242;20.940;2024-01-15T10:45:23;15.93;;;5.60;;
33593;SDS011;19920;52.242;20.940;2024-01-15T10:47:48;9.02;;;5.10;;
33593;SDS011;19920;52.242;20.940;2024-01-15T10:50:14;9.30;;;5.22;;
33593;SDS011;19920;52.242;20.940;2024-01-15T10:52:40;10.02;;;5.25;;
33593;SDS011;19920;52.242;20.940;2024-01-15T10:55:08;9.38;;;5.20;;
33593;SDS011;19920;52.242;20.940;2024-01-15T10:57:34;8.00;;;5.38;;
33593;SDS011;19920;52.242;20.940;2024-01-15T11:00:06;10.40;;;5.70;;
33593;SDS011;19920;52.242;20.940;2024-01-15T11:02:34;10.65;;;5.65;;
33593;SDS011;19920;52.242;20.940;2024-01-15T11:05:01;9.48;;;5.55;;
33593;SDS011;19920;52.242;20.940;2024-01-15T11:07:27;9.40;;;5.00;;
33593;SDS011;19920;52.242;20.940;2024-01-15T11:09:55;10.70;;;6.13;;
33593;SDS011;19920;52.242;20.940;2024-01-15T11:12:22;10.30;;;5.40;;
33593;SDS011;19920;52.242;20.940;2024-01-15T11:14:48;9.98;;;6.05;;
33593;SDS011;19920;52.242;20.940;2024-01-15T11:17:15;10.15;;;5.78;;
33593;SDS011;19920;52.242;20.940;2024-01-15T11:19:45;12.23;;;5.57;;
33593;SDS011;19920;52.242;20.940;2024-01-15T11:24:56;10.95;;;5.78;;
33593;SDS011;19920;52.242;20.940;2024-01-15T11:27:51;12.70;;;5.25;;
33593;SDS011;19920;52.242;20.940;2024-01-15T11:30:17;9.25;;;5.68;;
33593;SDS011;19920;52.242;20.940;2024-01-15T11:32:45;10.25;;;5.55;;
33593;SDS011;19920;52.242;20.940;2024-01-15T11:35:12;10.18;;;5.13;;
33593;SDS011;19920;52.242;20.940;2024-01-15T11:42:57;9.27;;;5.15;;
33593;SDS011;19920;52.242;20.940;2024-01-15T11:45:23;9.55;;;5.20;;
33593;SDS011;19920;52.242;20.940;2024-01-15T11:50:39;9.27;;;4.80;;
33593;SDS011;19920;52.242;20.940;2024-01-15T11:53:10;9.38;;;5.50;;
33593;SDS011;19920;52.242;20.940;2024-01-15T11:55:44;9.55;;;5.60;;
33593;SDS011;19920;52.242;20.940;2024-01-15T11:58:10;10.93;;;5.38;;
33593;SDS011;19920;52.242;20.940;2024-01-15T12:00:54;14.13;;;6.40;;
33593;SDS011;19920;52.242;20.940;2024-01-15T12:03:23;12.35;;;6.03;;
33593;SDS011;19920;52.242;20.940;2024-01-15T12:05:49;13.77;;;5.47;;
33593;SDS011;19920;52.242;20.940;2024-01-15T12:08:26;11.52;;;6.28;;
33593;SDS011;19920;52.242;20.940;2024-01-15T12:10:52;9.80;;;5.80;;
33593;SDS011;19920;52.242;20.940;2024-01-15T12:13:18;10.82;;;5.53;;
33593;SDS011;19920;52.242;20.940;2024-01-15T12:15:46;12.45;;;6.05;;
33593;SDS011;19920;52.242;20.940;2024-01-15T12:18:13;11.85;;;5.75;;
33593;SDS011;19920;52.242;20.940;2024-01-15T12:20:43;8.98;;;5.43;;
33593;SDS011;19920;52.242;20.940;2024-01-15T12:23:11;13.15;;;5.60;;
33593;SDS011;19920;52.242;20.940;2024-01-15T12:25:38;12.45;;;5.35;;
33593;SDS011;19920;52.242;20.940;2024-01-15T12:28:05;14.32;;;7.00;;
33593;SDS011;19920;52.242;20.940;2024-01-15T12:30:32;15.30;;;7.32;;
33593;SDS011;19920;52.242;20.940;2024-01-15T12:33:01;12.63;;;6.65;;
33593;SDS011;19920;52.242;20.940;2024-01-15T12:35:28;16.25;;;7.55;;
33593;SDS011;19920;52.242;20.940;2024-01-15T12:37:55;13.00;;;7.55;;
33593;SDS011;19920;52.242;20.940;2024-01-15T12:40:21;14.45;;;7.68;;
33593;SDS011;19920;52.242;20.940;2024-01-15T12:42:48;15.23;;;7.25;;
33593;SDS011;19920;52.242;20.940;2024-01-15T12:45:13;14.40;;;7.47;;
33593;SDS011;19920;52.242;20.940;2024-01-15T12:47:39;16.50;;;7.90;;
33593;SDS011;19920;52.242;20.940;2024-01-15T12:50:06;14.10;;;7.63;;
33593;SDS011;19920;52.242;20.940;2024-01-15T12:52:35;17.83;;;9.02;;
33593;SDS011;19920;52.242;20.940;2024-01-15T12:55:03;12.80;;;7.95;;
33593;SDS011;19920;52.242;20.940;2024-01-15T12:57:30;14.15;;;7.85;;
33593;SDS011;19920;52.242;20.940;2024-01-15T12:59:55;15.88;;;8.35;;
33593;SDS011;19920;52.242;20.940;2024-01-15T13:02:21;14.13;;;7.93;;
33593;SDS011;19920;52.242;20.940;2024-01-15T13:04:47;14.98;;;7.50;;
33593;SDS011;19920;52.242;20.940;2024-01-15T13:07:13;14.07;;;7.85;;
33593;SDS011;19920;52.242;20.940;2024-01-15T13:09:38;16.00;;;8.32;;
33593;SDS011;19920;52.242;20.940;2024-01-15T13:12:04;17.58;;;7.95;;
33593;SDS011;19920;52.242;20.940;2024-01-15T13:14:31;15.50;;;7.65;;
33593;SDS011;19920;52.242;20.940;2024-01-15T13:16:58;13.48;;;7.45;;
33593;SDS011;19920;52.242;20.940;2024-01-15T13:19:24;11.07;;;7.00;;
33593;SDS011;19920;52.242;20.940;2024-01-15T13:21:49;17.27;;;7.60;;
33593;SDS011;19920;52.242;20.940;2024-01-15T13:24:16;15.23;;;7.90;;
33593;SDS011;19920;52.242;20.940;2024-01-15T13:26:42;13.88;;;7.85;;
33593;SDS011;19920;52.242;20.940;2024-01-15T13:29:08;13.73;;;8.15;;
33593;SDS011;19920;52.242;20.940;2024-01-15T13:31:34;18.33;;;8.68;;
33593;SDS011;19920;52.242;20.940;2024-01-15T13:34:00;15.65;;;8.35;;
33593;SDS011;19920;52.242;20.940;2024-01-15T13:36:26;18.13;;;8.30;;
33593;SDS011;19920;52.242;20.940;2024-01-15T13:38:52;15.30;;;7.72;;
33593;SDS011;19920;52.242;20.940;2024-01-15T13:41:19;18.08;;;8.02;;
33593;SDS011;19920;52.242;20.940;2024-01-15T13:43:49;13.65;;;7.10;;
33593;SDS011;19920;52.242;20.940;2024-01-15T13:46:15;15.05;;;8.27;;
33593;SDS011;19920;52.242;20.940;2024-01-15T13:48:42;17.67;;;7.90;;
33593;SDS011;19920;52.242;20.940;2024-01-15T13:51:08;15.18;;;7.80;;
33593;SDS011;19920;52.242;20.940;2024-01-15T13:53:33;13.50;;;7.45;;
33593;SDS011;19920;52.242;20.940;2024-01-15T13:55:59;15.88;;;7.55;;
33593;SDS011;19920;52.242;20.940;2024-01-15T13:58:24;18.13;;;8.00;;
33593;SDS011;19920;52.242;20.940;2024-01-15T14:00:50;16.00;;;7.88;;
33593;SDS011;19920;52.242;20.940;2024-01-15T14:03:17;13.63;;;7.32;;
33593;SDS011;19920;52.242;20.940;2024-01-15T14:05:44;14.23;;;7.85;;
33593;SDS011;19920;52.242;20.940;2024-01-15T14:08:09;13.57;;;7.88;;
33593;SDS011;19920;52.242;20.940;2024-01-15T14:10:35;17.65;;;8.10;;
33593;SDS011;19920;52.242;20.940;2024-01-15T14:13:02;15.05;;;7.18;;
33593;SDS011;19920;52.242;20.940;2024-01-15T14:15:28;19.50;;;8.15;;
33593;SDS011;19920;52.242;20.940;2024-01-15T14:17:54;15.68;;;7.68;;
33593;SDS011;19920;52.242;20.940;2024-01-15T14:20:19;15.60;;;7.53;;
33593;SDS011;19920;52.242;20.940;2024-01-15T14:22:45;18.23;;;7.43;;
33593;SDS011;19920;52.242;20.940;2024-01-15T14:25:11;15.90;;;6.85;;
33593;SDS011;19920;52.242;20.940;2024-01-15T14:27:36;16.73;;;7.40;;
33593;SDS011;19920;52.242;20.940;2024-01-15T14:30:02;12.55;;;6.78;;